Appleton, Minnesota
Current Conditions -  °F | °C
As of 5:14 PM on Tuesday 25 Nov 2014 (Local Time) from KAQP Reporting Station
Scattered Clouds Scattered Clouds  
Wind Chill: 17°   Ceiling: Unl
Heat Index: 27°   Visibility: 10mi
Dew Point: 19°   Wind: 10mph
Humidity: 74%   Direction: 130°SE
Pressure: 29.92"   Gusts: NA
Location:  45.2°N, 96.02°W
Report Text: KAQP 252314Z AUTO 13009KT 10SM SCT040 M03/M07 A2992 RMK AO2
Loading
Personal Weather Stations






























Interactive Weather Map New forecast layout! Learn more

10-Day Weather Forecast

Advertisements
Track Severe Weather on mobile